createdAt,value
2022-08-09T00:00:11.251Z,3.28
2022-08-09T00:02:42.968Z,3.42
2022-08-09T00:06:18.516Z,3.38
2022-08-09T00:08:12.833Z,3.33
2022-08-09T00:10:59.564Z,3.47
2022-08-09T00:13:28.036Z,3.70
2022-08-09T00:16:02.826Z,3.55
2022-08-09T00:18:34.573Z,3.33
2022-08-09T00:21:04.472Z,3.25
2022-08-09T00:23:58.221Z,3.13
2022-08-09T00:26:19.464Z,3.83
2022-08-09T00:28:58.639Z,3.22
2022-08-09T00:31:56.726Z,3.67
2022-08-09T00:34:14.219Z,3.40
2022-08-09T00:36:42.094Z,3.53
2022-08-09T00:39:16.957Z,4.10
2022-08-09T00:44:13.797Z,4.28
2022-08-09T00:44:47.102Z,3.60
2022-08-09T00:47:16.302Z,4.00
2022-08-09T00:49:43.729Z,4.20
2022-08-09T00:52:20.424Z,4.43
2022-08-09T00:54:49.248Z,3.75
2022-08-09T00:57:33.854Z,3.88
2022-08-09T01:00:21.067Z,4.03
2022-08-09T01:03:20.384Z,3.65
2022-08-09T01:05:57.138Z,3.72
2022-08-09T01:08:40.531Z,3.92
2022-08-09T01:11:23.833Z,4.25
2022-08-09T01:14:00.034Z,4.28
2022-08-09T01:16:47.420Z,4.00
2022-08-09T01:20:01.920Z,4.38
2022-08-09T01:22:55.046Z,3.95
2022-08-09T01:25:24.911Z,4.50
2022-08-09T01:27:54.485Z,4.53
2022-08-09T01:30:33.700Z,4.10
2022-08-09T01:33:05.142Z,4.30
2022-08-09T01:35:45.481Z,3.88
2022-08-09T01:38:16.636Z,4.30
2022-08-09T01:41:04.817Z,4.10
2022-08-09T01:43:50.233Z,4.00
2022-08-09T01:46:26.550Z,3.95
2022-08-09T01:49:09.974Z,3.67
2022-08-09T01:51:44.382Z,3.95
2022-08-09T01:54:21.395Z,4.75
2022-08-09T01:56:51.621Z,3.42
2022-08-09T01:59:21.038Z,3.88
2022-08-09T02:01:58.113Z,3.70
2022-08-09T02:04:28.462Z,3.55
2022-08-09T02:07:17.873Z,3.83
2022-08-09T02:10:10.197Z,3.63
2022-08-09T02:12:39.323Z,3.22
2022-08-09T02:15:15.486Z,3.97
2022-08-09T02:18:01.271Z,3.65
2022-08-09T02:20:38.545Z,3.55
2022-08-09T02:23:14.103Z,3.40
2022-08-09T02:25:52.519Z,3.58
2022-08-09T02:28:44.918Z,3.50
2022-08-09T02:31:19.306Z,3.25
2022-08-09T02:34:06.581Z,3.42
2022-08-09T02:36:42.077Z,3.53
2022-08-09T02:39:33.230Z,3.40
2022-08-09T02:42:07.817Z,3.05
2022-08-09T02:44:38.473Z,4.05
2022-08-09T02:47:09.731Z,3.55
2022-08-09T02:50:01.880Z,3.55
2022-08-09T02:52:36.716Z,3.30
2022-08-09T02:55:20.997Z,2.97
2022-08-09T02:58:00.598Z,3.40
2022-08-09T03:00:47.784Z,3.20
2022-08-09T03:04:12.551Z,3.80
2022-08-09T03:06:15.113Z,3.22
2022-08-09T03:08:44.768Z,3.53
2022-08-09T03:12:04.428Z,3.50
2022-08-09T03:14:05.468Z,3.20
2022-08-09T03:16:37.404Z,3.33
2022-08-09T03:19:16.699Z,2.97
2022-08-09T03:21:58.073Z,3.63
2022-08-09T03:24:31.558Z,3.47
2022-08-09T03:27:12.722Z,3.40
2022-08-09T03:29:58.048Z,3.20
2022-08-09T03:32:36.778Z,3.40
2022-08-09T03:35:15.041Z,3.17
2022-08-09T03:37:56.414Z,3.97
2022-08-09T03:40:25.241Z,3.03
2022-08-09T03:42:57.953Z,3.33
2022-08-09T03:46:05.255Z,3.05
2022-08-09T03:48:11.602Z,3.00
2022-08-09T03:50:45.921Z,3.03
2022-08-09T03:53:16.828Z,3.25
2022-08-09T03:55:48.484Z,3.50
2022-08-09T03:58:16.355Z,3.03
2022-08-09T04:00:45.556Z,3.47
2022-08-09T04:03:15.296Z,3.10
2022-08-09T04:05:51.921Z,2.97
2022-08-09T04:08:19.192Z,3.90
2022-08-09T04:10:56.144Z,3.10
2022-08-09T04:14:36.640Z,3.20
2022-08-09T04:16:19.354Z,2.83
2022-08-09T04:18:48.021Z,2.78
2022-08-09T04:21:18.090Z,3.50
2022-08-09T04:23:54.413Z,3.50
2022-08-09T04:26:24.842Z,3.20
2022-08-09T04:29:07.865Z,3.30
2022-08-09T04:31:47.392Z,3.00
2022-08-09T04:34:19.050Z,3.13
2022-08-09T04:36:57.702Z,2.92
2022-08-09T04:39:24.657Z,2.95
2022-08-09T04:41:59.861Z,3.20
2022-08-09T04:46:58.360Z,3.20
2022-08-09T04:49:53.241Z,3.17
2022-08-09T04:52:32.449Z,2.53
2022-08-09T04:55:01.561Z,2.83
2022-08-09T04:57:58.401Z,2.97
2022-08-09T05:00:16.758Z,2.58
2022-08-09T05:02:44.327Z,2.63
2022-08-09T05:05:31.514Z,2.97
2022-08-09T05:08:05.741Z,2.80
2022-08-09T05:10:34.112Z,3.13
2022-08-09T05:13:04.007Z,2.72
2022-08-09T05:15:39.079Z,2.70
2022-08-09T05:18:37.642Z,2.45
2022-08-09T05:21:01.940Z,2.60
2022-08-09T05:23:54.941Z,2.50
2022-08-09T05:26:16.034Z,2.10
2022-08-09T05:28:53.404Z,2.35
2022-08-09T05:31:37.015Z,2.22
2022-08-09T05:34:06.906Z,2.45
2022-08-09T05:36:43.799Z,2.13
2022-08-09T05:39:13.634Z,1.90
2022-08-09T05:41:55.697Z,2.45
2022-08-09T05:44:29.065Z,2.30
2022-08-09T05:46:59.746Z,2.42
2022-08-09T05:50:23.441Z,2.50
2022-08-09T05:52:14.057Z,2.20
2022-08-09T05:54:42.571Z,1.70
2022-08-09T05:57:14.243Z,2.30
2022-08-09T05:59:45.144Z,2.40
2022-08-09T06:02:17.125Z,2.15
2022-08-09T06:04:46.013Z,2.15
2022-08-09T06:07:21.148Z,1.70
2022-08-09T06:10:02.488Z,2.03
2022-08-09T06:12:30.470Z,1.48
2022-08-09T06:15:01.067Z,1.50
2022-08-09T06:17:39.917Z,1.50
2022-08-09T06:20:08.593Z,1.63
2022-08-09T06:22:36.254Z,1.90
2022-08-09T06:25:03.813Z,1.80
2022-08-09T06:27:42.015Z,1.85
2022-08-09T06:30:14.256Z,1.77
2022-08-09T06:33:00.856Z,1.67
2022-08-09T06:35:56.093Z,1.50
2022-08-09T06:38:16.998Z,2.03
2022-08-09T06:40:46.167Z,2.53
2022-08-09T06:43:14.100Z,2.05
2022-08-09T06:46:06.262Z,2.42
2022-08-09T06:48:30.877Z,2.28
2022-08-09T06:51:04.494Z,2.17
2022-08-09T06:53:33.202Z,1.88
2022-08-09T06:56:06.681Z,2.15
2022-08-09T07:00:46.509Z,2.15
2022-08-09T07:01:23.986Z,1.60
2022-08-09T07:03:57.828Z,1.35
2022-08-09T07:06:30.635Z,1.92
2022-08-09T07:08:57.421Z,1.50
2022-08-09T07:11:25.572Z,1.70
2022-08-09T07:14:05.495Z,1.98
2022-08-09T07:16:43.362Z,1.85
2022-08-09T07:19:18.576Z,1.73
2022-08-09T07:21:55.582Z,1.67
2022-08-09T07:24:32.233Z,1.83
2022-08-09T07:27:23.894Z,1.60
2022-08-09T07:29:58.478Z,1.50
2022-08-09T07:32:32.617Z,1.90
2022-08-09T07:35:07.939Z,1.60
2022-08-09T07:37:44.016Z,1.50
2022-08-09T07:40:18.890Z,1.70
2022-08-09T07:42:54.901Z,2.10
2022-08-09T07:45:37.860Z,1.50
2022-08-09T07:48:08.298Z,1.58
2022-08-09T07:51:09.490Z,1.40
2022-08-09T07:54:04.356Z,1.55
2022-08-09T07:56:28.925Z,1.30
2022-08-09T07:58:59.209Z,1.65
2022-08-09T08:01:28.479Z,1.90
2022-08-09T08:04:02.718Z,1.50
2022-08-09T08:06:32.943Z,1.65
2022-08-09T08:09:05.349Z,1.30
2022-08-09T08:12:10.415Z,1.30
2022-08-09T08:14:31.859Z,1.45
2022-08-09T08:17:07.355Z,1.23
2022-08-09T08:19:35.253Z,1.80
2022-08-09T08:22:03.125Z,1.35
2022-08-09T08:24:34.343Z,1.40
2022-08-09T08:27:16.776Z,1.60
2022-08-09T08:29:49.903Z,1.23
2022-08-09T08:32:24.160Z,1.30
2022-08-09T08:34:58.539Z,0.70
2022-08-09T08:37:30.947Z,1.13
2022-08-09T08:40:09.575Z,1.05
2022-08-09T08:42:38.384Z,1.05
2022-08-09T08:45:13.884Z,0.80
2022-08-09T08:47:42.889Z,1.27
2022-08-09T08:50:15.445Z,1.20
2022-08-09T08:52:57.836Z,1.60
2022-08-09T08:55:27.468Z,0.90
2022-08-09T08:57:58.230Z,1.45
2022-08-09T09:00:34.294Z,1.23
2022-08-09T09:03:12.250Z,1.35
2022-08-09T09:05:59.988Z,1.23
2022-08-09T09:08:41.017Z,1.08
2022-08-09T09:11:13.747Z,1.00
2022-08-09T09:13:55.147Z,1.17
2022-08-09T09:16:30.289Z,1.17
2022-08-09T09:21:58.079Z,1.25
2022-08-09T09:24:45.629Z,0.75
2022-08-09T09:27:47.212Z,1.10
2022-08-09T09:30:26.197Z,1.00
2022-08-09T09:33:16.850Z,1.27
2022-08-09T09:36:02.576Z,1.30
2022-08-09T09:38:52.240Z,1.20
2022-08-09T09:41:32.616Z,1.02
2022-08-09T09:44:12.120Z,1.05
2022-08-09T09:46:51.308Z,0.90
2022-08-09T09:49:49.781Z,0.95
2022-08-09T09:52:24.127Z,1.27
2022-08-09T09:55:23.845Z,1.50
2022-08-09T09:58:17.346Z,1.15
2022-08-09T10:00:59.553Z,1.05
2022-08-09T10:03:56.342Z,0.82
2022-08-09T10:06:43.432Z,0.98
2022-08-09T10:12:15.067Z,0.77
2022-08-09T10:14:49.522Z,1.23
2022-08-09T10:17:40.241Z,1.13
2022-08-09T10:20:27.138Z,0.70
2022-08-09T10:23:12.377Z,1.15
2022-08-09T10:26:06.307Z,1.30
2022-08-09T10:28:33.230Z,1.13
2022-08-09T10:34:10.473Z,1.17
2022-08-09T10:36:36.393Z,1.33
2022-08-09T10:39:13.983Z,0.75
2022-08-09T10:41:46.042Z,1.10
2022-08-09T10:44:18.431Z,0.93
2022-08-09T10:48:16.228Z,1.23
2022-08-09T10:50:30.923Z,1.00
2022-08-09T10:53:10.986Z,1.63
2022-08-09T10:55:55.693Z,1.00
2022-08-09T10:58:34.812Z,1.20
2022-08-09T11:04:19.407Z,0.95
2022-08-09T11:06:58.137Z,1.27
2022-08-09T11:09:41.044Z,1.35
2022-08-09T11:12:21.711Z,0.90
2022-08-09T11:14:57.689Z,0.98
2022-08-09T11:17:27.429Z,0.60
2022-08-09T11:20:10.754Z,0.80
2022-08-09T11:22:47.283Z,0.77
2022-08-09T11:25:47.823Z,1.00
2022-08-09T11:28:54.139Z,1.02
2022-08-09T11:31:49.476Z,1.02
2022-08-09T11:34:35.248Z,1.00
2022-08-09T11:37:03.538Z,0.70
2022-08-09T11:40:02.866Z,0.70
2022-08-09T11:42:53.448Z,0.75
2022-08-09T11:45:26.338Z,0.63
2022-08-09T11:48:19.355Z,1.02
2022-08-09T11:52:50.021Z,1.15
2022-08-09T11:54:01.274Z,0.70
2022-08-09T11:56:42.359Z,1.02
2022-08-09T11:59:30.271Z,0.80
2022-08-09T12:02:18.010Z,1.33
2022-08-09T12:04:58.174Z,0.88
2022-08-09T12:07:34.544Z,0.90
2022-08-09T12:10:14.387Z,1.00
2022-08-09T12:12:57.565Z,0.88
2022-08-09T12:15:49.712Z,0.98
2022-08-09T12:18:30.043Z,1.20
2022-08-09T12:21:00.455Z,0.93
2022-08-09T12:23:56.568Z,0.98
2022-08-09T12:26:19.875Z,0.80
2022-08-09T12:29:14.150Z,0.80
2022-08-09T12:31:58.703Z,1.25
2022-08-09T12:34:38.226Z,0.93
2022-08-09T12:37:22.230Z,0.82
2022-08-09T12:40:09.128Z,0.70
2022-08-09T12:42:37.245Z,0.60
2022-08-09T12:45:07.026Z,0.68
2022-08-09T12:47:52.640Z,1.00
2022-08-09T12:50:23.664Z,0.95
2022-08-09T12:53:09.350Z,0.85
2022-08-09T12:56:11.503Z,0.60
2022-08-09T12:58:28.266Z,0.85
2022-08-09T13:00:56.554Z,0.70
2022-08-09T13:03:58.344Z,0.70
2022-08-09T13:06:34.440Z,0.80
2022-08-09T13:09:13.449Z,0.88
2022-08-09T13:11:46.009Z,0.75
2022-08-09T13:14:42.703Z,0.80
2022-08-09T13:17:25.753Z,0.80
2022-08-09T13:20:14.097Z,0.90
2022-08-09T13:23:06.058Z,0.77
2022-08-09T13:25:52.995Z,0.80
2022-08-09T13:28:33.837Z,0.98
2022-08-09T13:32:13.347Z,0.90
2022-08-09T13:33:53.532Z,0.88
2022-08-09T13:36:24.163Z,0.80
2022-08-09T13:41:17.595Z,0.73
2022-08-09T13:42:12.079Z,0.90
2022-08-09T13:44:45.638Z,0.70
2022-08-09T13:47:33.433Z,1.05
2022-08-09T13:50:12.627Z,0.95
2022-08-09T13:52:47.672Z,0.88
2022-08-09T13:55:15.505Z,0.63
2022-08-09T13:57:56.000Z,0.73
2022-08-09T14:00:28.692Z,0.70
2022-08-09T14:03:16.877Z,0.93
2022-08-09T14:05:59.405Z,0.80
2022-08-09T14:08:30.169Z,0.50
2022-08-09T14:10:57.977Z,0.70
2022-08-09T14:14:15.378Z,0.90
2022-08-09T14:16:16.855Z,1.02
2022-08-09T14:18:49.436Z,0.98
2022-08-09T14:21:22.488Z,0.80
2022-08-09T14:23:54.976Z,0.80
2022-08-09T14:26:31.463Z,1.30
2022-08-09T14:29:01.348Z,0.80
2022-08-09T14:31:35.841Z,0.77
2022-08-09T14:34:17.484Z,0.60
2022-08-09T14:36:55.393Z,0.80
2022-08-09T14:39:45.979Z,0.70
2022-08-09T14:42:09.344Z,0.70
2022-08-09T14:44:48.773Z,1.15
2022-08-09T14:47:41.239Z,1.13
2022-08-09T14:50:04.938Z,0.93
2022-08-09T14:52:33.625Z,0.75
2022-08-09T14:55:02.764Z,2.15
2022-08-09T14:57:31.751Z,0.63
2022-08-09T15:00:10.442Z,0.75
2022-08-09T15:02:37.529Z,0.90
2022-08-09T15:05:07.093Z,0.82
2022-08-09T15:07:35.185Z,0.90
2022-08-09T15:10:11.251Z,0.68
2022-08-09T15:12:45.018Z,1.70
2022-08-09T15:15:12.977Z,0.85
2022-08-09T15:17:41.829Z,1.33
2022-08-09T15:20:11.767Z,0.80
2022-08-09T15:22:47.280Z,0.88
2022-08-09T15:25:14.616Z,1.10
2022-08-09T15:28:02.937Z,0.80
2022-08-09T15:30:55.710Z,0.90
2022-08-09T15:33:23.365Z,1.00
2022-08-09T15:36:01.516Z,0.90
2022-08-09T15:38:28.862Z,0.90
2022-08-09T15:40:55.668Z,0.70
2022-08-09T15:43:24.818Z,0.80
2022-08-09T15:46:28.607Z,1.13
2022-08-09T15:49:21.721Z,0.70
2022-08-09T15:52:05.235Z,0.93
2022-08-09T15:54:32.195Z,0.82
2022-08-09T15:57:09.539Z,0.80
2022-08-09T15:59:37.518Z,0.63
2022-08-09T16:02:05.590Z,0.90
2022-08-09T16:04:34.417Z,0.80
2022-08-09T16:07:02.128Z,0.80
2022-08-09T16:09:51.378Z,0.77
2022-08-09T16:12:16.020Z,0.88
2022-08-09T16:14:43.065Z,0.80
2022-08-09T16:17:12.753Z,0.80
2022-08-09T16:19:49.309Z,1.20
2022-08-09T16:22:30.613Z,1.20
2022-08-09T16:24:59.428Z,1.00
2022-08-09T16:27:27.399Z,1.15
2022-08-09T16:30:00.997Z,0.80
2022-08-09T16:32:49.546Z,0.85
2022-08-09T16:35:56.723Z,1.20
2022-08-09T16:38:09.435Z,1.00
2022-08-09T16:40:40.610Z,1.00
2022-08-09T16:43:08.737Z,0.70
2022-08-09T16:45:43.810Z,0.82
2022-08-09T16:48:38.242Z,1.00
2022-08-09T16:51:07.462Z,1.00
2022-08-09T16:53:36.826Z,0.90
2022-08-09T16:56:09.972Z,0.88
2022-08-09T16:58:39.668Z,0.88
2022-08-09T17:01:10.032Z,0.70
2022-08-09T17:03:38.171Z,1.00
2022-08-09T17:06:31.155Z,1.10
2022-08-09T17:08:59.894Z,0.73
2022-08-09T17:11:39.909Z,1.00
2022-08-09T17:14:15.979Z,0.73
2022-08-09T17:17:01.396Z,0.93
2022-08-09T17:19:47.384Z,0.90
2022-08-09T17:22:23.918Z,0.82
2022-08-09T17:25:03.311Z,1.27
2022-08-09T17:27:34.765Z,1.20
2022-08-09T17:30:13.176Z,1.17
2022-08-09T17:32:44.422Z,0.88
2022-08-09T17:35:14.035Z,1.15
2022-08-09T17:38:12.511Z,0.80
2022-08-09T17:40:30.424Z,1.10
2022-08-09T17:43:34.075Z,1.00
2022-08-09T17:46:06.651Z,0.90
2022-08-09T17:48:51.508Z,1.10
2022-08-09T17:51:20.263Z,0.82
2022-08-09T17:53:53.608Z,0.95
2022-08-09T17:56:29.261Z,1.05
2022-08-09T17:59:11.993Z,0.90
2022-08-09T18:02:07.187Z,0.90
2022-08-09T18:04:31.529Z,1.25
2022-08-09T18:06:59.773Z,0.70
2022-08-09T18:09:40.282Z,1.15
2022-08-09T18:12:18.248Z,1.02
2022-08-09T18:14:55.124Z,0.80
2022-08-09T18:18:03.703Z,0.93
2022-08-09T18:20:54.307Z,1.25
2022-08-09T18:23:05.357Z,0.90
2022-08-09T18:25:53.186Z,1.65
2022-08-09T18:30:42.912Z,1.40
2022-08-09T18:31:08.621Z,1.50
2022-08-09T18:33:36.078Z,1.45
2022-08-09T18:36:03.088Z,1.58
2022-08-09T18:38:30.630Z,1.30
2022-08-09T18:40:58.385Z,1.23
2022-08-09T18:43:27.087Z,1.40
2022-08-09T18:46:50.477Z,1.60
2022-08-09T18:48:42.283Z,1.80
2022-08-09T18:51:09.866Z,1.10
2022-08-09T18:53:56.398Z,1.42
2022-08-09T18:56:27.725Z,1.50
2022-08-09T18:58:56.858Z,1.70
2022-08-09T19:01:25.633Z,1.58
2022-08-09T19:04:05.934Z,1.48
2022-08-09T19:06:38.575Z,1.60
2022-08-09T19:09:07.343Z,1.30
2022-08-09T19:11:37.686Z,1.63
2022-08-09T19:14:09.680Z,1.20
2022-08-09T19:16:49.958Z,1.60
2022-08-09T19:19:25.595Z,1.40
2022-08-09T19:22:04.720Z,1.50
2022-08-09T19:25:07.628Z,1.42
2022-08-09T19:27:22.900Z,1.42
2022-08-09T19:30:22.513Z,1.25
2022-08-09T19:32:37.117Z,1.48
2022-08-09T19:35:04.704Z,1.23
2022-08-09T19:37:40.943Z,1.33
2022-08-09T19:40:19.476Z,1.40
2022-08-09T19:42:47.555Z,1.50
2022-08-09T19:45:17.747Z,1.50
2022-08-09T19:47:45.459Z,1.27
2022-08-09T19:50:51.284Z,2.03
2022-08-09T19:53:04.184Z,1.55
2022-08-09T19:56:02.163Z,1.60
2022-08-09T19:58:30.230Z,1.80
2022-08-09T20:04:17.880Z,1.60
2022-08-09T20:06:23.676Z,1.92
2022-08-09T20:08:56.626Z,1.70
2022-08-09T20:11:42.844Z,2.05
2022-08-09T20:14:15.393Z,1.92
2022-08-09T20:16:49.801Z,1.83
2022-08-09T20:19:49.653Z,2.17
2022-08-09T20:22:09.914Z,1.98
2022-08-09T20:24:37.775Z,2.05
2022-08-09T20:27:08.921Z,1.92
2022-08-09T20:29:39.547Z,2.00
2022-08-09T20:32:31.081Z,2.50
2022-08-09T20:37:24.725Z,2.17
2022-08-09T20:40:16.121Z,2.42
2022-08-09T20:42:53.377Z,2.30
2022-08-09T20:46:01.242Z,2.28
2022-08-09T20:48:21.163Z,3.03
2022-08-09T20:50:51.074Z,2.20
2022-08-09T20:53:37.288Z,2.20
2022-08-09T20:56:08.652Z,2.47
2022-08-09T21:01:32.799Z,2.33
2022-08-09T21:05:49.101Z,2.70
2022-08-09T21:06:42.996Z,2.65
2022-08-09T21:09:13.482Z,2.40
2022-08-09T21:14:31.311Z,2.58
2022-08-09T21:17:00.431Z,2.85
2022-08-09T21:20:18.156Z,2.80
2022-08-09T21:22:36.285Z,3.05
2022-08-09T21:25:20.951Z,2.97
2022-08-09T21:27:51.373Z,3.55
2022-08-09T21:30:22.168Z,3.00
2022-08-09T21:32:50.428Z,3.08
2022-08-09T21:35:17.965Z,3.20
2022-08-09T21:37:59.110Z,3.40
2022-08-09T21:40:30.146Z,3.30
2022-08-09T21:43:01.814Z,3.88
2022-08-09T21:45:28.555Z,3.35
2022-08-09T21:47:58.813Z,3.40
2022-08-09T21:50:35.957Z,3.22
2022-08-09T21:53:15.631Z,3.95
2022-08-09T21:55:54.507Z,3.60
2022-08-09T21:58:21.221Z,3.42
2022-08-09T22:00:58.151Z,3.15
2022-08-09T22:03:26.238Z,3.58
2022-08-09T22:05:54.717Z,3.28
2022-08-09T22:08:24.555Z,3.42
2022-08-09T22:11:00.736Z,3.60
2022-08-09T22:13:43.297Z,3.78
2022-08-09T22:16:10.956Z,3.40
2022-08-09T22:18:53.613Z,4.00
2022-08-09T22:23:59.251Z,3.35
2022-08-09T22:26:35.104Z,4.28
2022-08-09T22:29:08.998Z,4.05
2022-08-09T22:31:37.754Z,4.15
2022-08-09T22:34:14.579Z,3.55
2022-08-09T22:36:45.588Z,3.70
2022-08-09T22:39:46.669Z,3.88
2022-08-09T22:42:03.435Z,3.70
2022-08-09T22:44:32.902Z,3.72
2022-08-09T22:48:13.804Z,3.80
2022-08-09T22:49:47.726Z,4.00
2022-08-09T22:54:47.380Z,3.45
2022-08-09T22:57:14.745Z,3.35
2022-08-09T22:59:57.189Z,3.60
2022-08-09T23:02:27.389Z,3.33
2022-08-09T23:04:55.325Z,3.70
2022-08-09T23:08:21.300Z,3.20
2022-08-09T23:10:31.142Z,3.50
2022-08-09T23:12:58.304Z,2.90
2022-08-09T23:15:25.393Z,2.97
2022-08-09T23:17:52.176Z,3.08
2022-08-09T23:20:18.933Z,3.22
2022-08-09T23:22:45.861Z,3.35
2022-08-09T23:25:12.986Z,3.15
2022-08-09T23:28:09.364Z,3.13
2022-08-09T23:30:26.616Z,2.70
2022-08-09T23:32:53.442Z,2.70
2022-08-09T23:35:20.405Z,3.05
2022-08-09T23:37:47.161Z,2.90
2022-08-09T23:40:13.990Z,3.03
2022-08-09T23:42:40.811Z,3.05
2022-08-09T23:45:08.855Z,2.95
2022-08-09T23:47:35.827Z,3.38
2022-08-09T23:50:03.289Z,3.17
2022-08-09T23:52:30.083Z,3.33
2022-08-09T23:54:57.922Z,3.08
2022-08-09T23:57:25.128Z,3.10
